KAGC

Allegheny County Airport

Pittsburgh, Pennsylvania, USA
METAR KAGC 191953Z 32008G14KT 10SM OVC048 27/21 A2992 RMK AO2 SLP125 T02670206
Observed Flight Rules
Jun-19 @ 19:53 UTC (22 minutes ago) Visual Flight Rules
Wind Visibility Clouds
320° at 8 knots
 Gusting to 14 knots
10 miles
  • Overcast at 4,800' AGL
Temperatures Readings
Current 27°C / 81°F
Dewpoint 21°C / 70°F
Humidity 70%
Altimeter 29.92" Hg
Pressure 1012.5 hPa
Elevation 389
METAR KAGC 191953Z 32008G14KT 10SM OVC048 27/21 A2992 RMK AO2 SLP125 T02670206
Observed Flight Rules
Jun-19 @ 19:53 UTC
(22 minutes ago)
VFR
Wind Visibility
320° at 8 knots
 Gusting to 14 knots
10 miles
Clouds
  • Overcast at 4,800' AGL
Temperature Dewpoint
27°C / 81°F 21°C / 70°F
Humidity Altimeter Pressure
70% 29.92" Hg 1012.5 hPa